createdAt,value
2017-07-22T00:00:36.045Z,983.33
2017-07-22T00:01:33.319Z,983.30
2017-07-22T00:02:30.574Z,983.29
2017-07-22T00:03:27.974Z,983.40
2017-07-22T00:04:25.218Z,983.37
2017-07-22T00:05:22.523Z,983.28
2017-07-22T00:06:19.772Z,983.34
2017-07-22T00:07:17.052Z,983.25
2017-07-22T00:08:14.320Z,983.28
2017-07-22T00:09:11.614Z,983.34
2017-07-22T00:10:08.862Z,983.28
2017-07-22T00:11:06.137Z,983.34
2017-07-22T00:12:03.409Z,983.32
2017-07-22T00:13:00.655Z,983.33
2017-07-22T00:13:57.936Z,983.34
2017-07-22T00:14:55.266Z,983.29
2017-07-22T00:15:52.573Z,983.31
2017-07-22T00:16:49.880Z,983.34
2017-07-22T00:17:47.122Z,983.28
2017-07-22T00:18:44.415Z,983.30
2017-07-22T00:19:41.673Z,983.35
2017-07-22T00:20:38.925Z,983.37
2017-07-22T00:21:36.168Z,983.32
2017-07-22T00:22:33.525Z,983.35
2017-07-22T00:23:30.779Z,983.39
2017-07-22T00:24:28.048Z,983.41
2017-07-22T00:25:25.308Z,983.41
2017-07-22T00:26:22.592Z,983.39
2017-07-22T00:27:19.821Z,983.35
2017-07-22T00:28:17.076Z,983.34
2017-07-22T00:29:14.333Z,983.43
2017-07-22T00:30:11.723Z,983.37
2017-07-22T00:31:08.995Z,983.34
2017-07-22T00:32:06.262Z,983.41
2017-07-22T00:33:03.505Z,983.34
2017-07-22T00:34:00.797Z,983.31
2017-07-22T00:34:58.049Z,983.22
2017-07-22T00:35:55.350Z,983.25
2017-07-22T00:36:52.577Z,983.29
2017-07-22T00:37:49.839Z,983.16
2017-07-22T00:38:47.132Z,983.26
2017-07-22T00:39:44.389Z,983.21
2017-07-22T00:40:41.653Z,983.22
2017-07-22T00:41:38.922Z,983.32
2017-07-22T00:42:36.172Z,983.20
2017-07-22T00:43:33.457Z,983.24
2017-07-22T00:44:30.733Z,983.17
2017-07-22T00:45:28.013Z,983.20
2017-07-22T00:46:25.265Z,983.29
2017-07-22T00:47:22.534Z,983.25
2017-07-22T00:48:19.772Z,983.29
2017-07-22T00:49:17.076Z,983.25
2017-07-22T00:50:14.336Z,983.28
2017-07-22T00:51:11.711Z,983.23
2017-07-22T00:52:08.974Z,983.25
2017-07-22T00:53:06.245Z,983.24
2017-07-22T00:54:03.491Z,983.29
2017-07-22T00:55:00.773Z,983.31
2017-07-22T00:55:58.008Z,983.32
2017-07-22T00:56:55.279Z,983.40
2017-07-22T00:57:52.513Z,983.40
2017-07-22T00:58:49.801Z,983.45
2017-07-22T00:59:47.056Z,983.38
2017-07-22T01:00:44.392Z,983.39
2017-07-22T01:01:41.653Z,983.39
2017-07-22T01:02:38.980Z,983.38
2017-07-22T01:03:36.228Z,983.40
2017-07-22T01:04:33.527Z,983.38
2017-07-22T01:05:30.798Z,983.40
2017-07-22T01:06:28.090Z,983.33
2017-07-22T01:07:25.348Z,983.37
2017-07-22T01:08:22.626Z,983.37
2017-07-22T01:09:19.917Z,983.36
2017-07-22T01:10:17.225Z,983.40
2017-07-22T01:11:14.473Z,983.34
2017-07-22T01:12:11.780Z,983.37
2017-07-22T01:13:09.060Z,983.38
2017-07-22T01:14:06.323Z,983.42
2017-07-22T01:15:03.597Z,983.42
2017-07-22T01:16:00.864Z,983.45
2017-07-22T01:16:58.129Z,983.40
2017-07-22T01:17:55.384Z,983.41
2017-07-22T01:18:52.657Z,983.44
2017-07-22T01:19:49.924Z,983.42
2017-07-22T01:20:47.194Z,983.44
2017-07-22T01:21:44.461Z,983.35
2017-07-22T01:22:41.727Z,983.39
2017-07-22T01:23:39.082Z,983.35
2017-07-22T01:24:36.365Z,983.38
2017-07-22T01:25:33.731Z,983.39
2017-07-22T01:26:31.052Z,983.26
2017-07-22T01:27:28.326Z,983.27
2017-07-22T01:28:25.612Z,983.30
2017-07-22T01:29:22.884Z,983.19
2017-07-22T01:30:20.144Z,983.33
2017-07-22T01:31:17.443Z,983.28
2017-07-22T01:32:14.684Z,983.28
2017-07-22T01:33:11.945Z,983.15
2017-07-22T01:34:09.198Z,983.23
2017-07-22T01:35:06.497Z,983.17
2017-07-22T01:36:03.754Z,983.16
2017-07-22T01:37:01.088Z,983.23
2017-07-22T01:37:58.324Z,983.26
2017-07-22T01:38:57.789Z,983.20
2017-07-22T01:39:55.042Z,983.19
2017-07-22T01:40:52.322Z,983.20
2017-07-22T01:41:49.633Z,983.17
2017-07-22T01:42:46.905Z,983.16
2017-07-22T01:43:44.144Z,983.30
2017-07-22T01:44:41.403Z,983.13
2017-07-22T01:45:38.656Z,983.22
2017-07-22T01:46:35.958Z,983.30
2017-07-22T01:47:33.196Z,983.27
2017-07-22T01:48:30.484Z,983.21
2017-07-22T01:49:27.708Z,983.25
2017-07-22T01:50:25.002Z,983.28
2017-07-22T01:51:22.290Z,983.27
2017-07-22T01:52:19.584Z,983.31
2017-07-22T01:53:16.841Z,983.19
2017-07-22T01:54:14.137Z,983.29
2017-07-22T01:55:11.388Z,983.25
2017-07-22T01:56:08.679Z,983.25
2017-07-22T01:57:05.969Z,983.31
2017-07-22T01:58:03.251Z,983.30
2017-07-22T01:59:00.504Z,983.25
2017-07-22T01:59:57.792Z,983.33
2017-07-22T02:00:55.040Z,983.31
2017-07-22T02:01:52.328Z,983.34
2017-07-22T02:02:49.574Z,983.32
2017-07-22T02:03:46.864Z,983.27
2017-07-22T02:04:44.126Z,983.36
2017-07-22T02:05:41.429Z,983.35
2017-07-22T02:06:38.720Z,983.36
2017-07-22T02:07:36.016Z,983.33
2017-07-22T02:08:33.268Z,983.29
2017-07-22T02:09:30.548Z,983.34
2017-07-22T02:10:27.831Z,983.35
2017-07-22T02:11:25.089Z,983.35
2017-07-22T02:12:22.377Z,983.39
2017-07-22T02:13:19.655Z,983.39
2017-07-22T02:14:16.966Z,983.26
2017-07-22T02:15:14.285Z,983.33
2017-07-22T02:16:11.549Z,983.34
2017-07-22T02:17:08.820Z,983.34
2017-07-22T02:18:06.086Z,983.34
2017-07-22T02:19:03.384Z,983.37
2017-07-22T02:20:00.636Z,983.38
2017-07-22T02:20:57.936Z,983.30
2017-07-22T02:21:55.223Z,983.37
2017-07-22T02:22:52.597Z,983.34
2017-07-22T02:23:49.893Z,983.32
2017-07-22T02:24:47.164Z,983.33
2017-07-22T02:25:44.409Z,983.32
2017-07-22T02:26:41.684Z,983.37
2017-07-22T02:27:38.993Z,983.31
2017-07-22T02:28:36.289Z,983.32
2017-07-22T02:29:33.576Z,983.35
2017-07-22T02:30:30.845Z,983.32
2017-07-22T02:31:28.097Z,983.30
2017-07-22T02:32:25.388Z,983.35
2017-07-22T02:33:22.669Z,983.31
2017-07-22T02:34:19.970Z,983.32
2017-07-22T02:35:17.222Z,983.32
2017-07-22T02:36:14.579Z,983.27
2017-07-22T02:37:11.863Z,983.27
2017-07-22T02:38:09.160Z,983.32
2017-07-22T02:39:06.393Z,983.30
2017-07-22T02:40:03.669Z,983.37
2017-07-22T02:41:00.937Z,983.35
2017-07-22T02:41:58.209Z,983.45
2017-07-22T02:42:55.453Z,983.40
2017-07-22T02:43:52.742Z,983.42
2017-07-22T02:44:49.990Z,983.39
2017-07-22T02:45:47.257Z,983.41
2017-07-22T02:46:44.500Z,983.44
2017-07-22T02:47:41.771Z,983.39
2017-07-22T02:48:39.048Z,983.37
2017-07-22T02:49:36.325Z,983.40
2017-07-22T02:50:33.561Z,983.37
2017-07-22T02:51:30.972Z,983.39
2017-07-22T02:52:28.291Z,983.35
2017-07-22T02:53:25.584Z,983.34
2017-07-22T02:54:22.846Z,983.33
2017-07-22T02:55:20.120Z,983.43
2017-07-22T02:56:17.353Z,983.31
2017-07-22T02:57:14.736Z,983.36
2017-07-22T02:58:11.979Z,983.35
2017-07-22T02:59:09.252Z,983.37
2017-07-22T03:00:06.492Z,983.38
2017-07-22T03:01:03.771Z,983.28
2017-07-22T03:02:01.053Z,983.24
2017-07-22T03:02:58.345Z,983.26
2017-07-22T03:03:55.616Z,983.41
2017-07-22T03:04:52.892Z,983.37
2017-07-22T03:05:50.165Z,983.34
2017-07-22T03:06:47.450Z,983.40
2017-07-22T03:07:44.689Z,983.32
2017-07-22T03:08:41.945Z,983.41
2017-07-22T03:09:39.257Z,983.34
2017-07-22T03:10:36.552Z,983.43
2017-07-22T03:11:33.812Z,983.37
2017-07-22T03:12:31.148Z,983.43
2017-07-22T03:13:28.507Z,983.37
2017-07-22T03:14:25.832Z,983.40
2017-07-22T03:15:23.084Z,983.36
2017-07-22T03:16:20.368Z,983.39
2017-07-22T03:17:17.615Z,983.37
2017-07-22T03:18:14.892Z,983.41
2017-07-22T03:19:12.187Z,983.39
2017-07-22T03:20:09.455Z,983.47
2017-07-22T03:21:06.712Z,983.42
2017-07-22T03:22:03.989Z,983.30
2017-07-22T03:23:01.236Z,983.45
2017-07-22T03:23:58.487Z,983.40
2017-07-22T03:24:56.651Z,983.41
2017-07-22T03:25:53.916Z,983.42
2017-07-22T03:26:51.146Z,983.44
2017-07-22T03:27:48.422Z,983.51
2017-07-22T03:28:45.695Z,983.55
2017-07-22T03:29:42.995Z,983.54
2017-07-22T03:30:40.274Z,983.51
2017-07-22T03:31:37.545Z,983.56
2017-07-22T03:32:34.791Z,983.59
2017-07-22T03:33:32.056Z,983.57
2017-07-22T03:34:29.328Z,983.53
2017-07-22T03:35:26.640Z,983.60
2017-07-22T03:36:23.913Z,983.53
2017-07-22T03:37:21.180Z,983.60
2017-07-22T03:38:18.452Z,983.51
2017-07-22T03:39:15.765Z,983.54
2017-07-22T03:40:13.029Z,983.53
2017-07-22T03:41:10.289Z,983.53
2017-07-22T03:42:07.511Z,983.53
2017-07-22T03:43:04.773Z,983.55
2017-07-22T03:44:02.090Z,983.57
2017-07-22T03:44:59.446Z,983.58
2017-07-22T03:45:56.713Z,983.66
2017-07-22T03:46:53.968Z,983.60
2017-07-22T03:47:51.213Z,983.62
2017-07-22T03:48:48.539Z,983.65
2017-07-22T03:49:45.872Z,983.59
2017-07-22T03:50:43.130Z,983.56
2017-07-22T03:51:40.370Z,983.62
2017-07-22T03:52:37.653Z,983.59
2017-07-22T03:53:34.880Z,983.68
2017-07-22T03:54:32.141Z,983.63
2017-07-22T03:55:29.402Z,983.55
2017-07-22T03:56:26.689Z,983.59
2017-07-22T03:57:23.938Z,983.57
2017-07-22T03:58:21.224Z,983.54
2017-07-22T03:59:18.472Z,983.54
2017-07-22T04:00:15.769Z,983.56
2017-07-22T04:01:13.018Z,983.51
2017-07-22T04:02:10.280Z,983.55
2017-07-22T04:03:07.511Z,983.51
2017-07-22T04:04:04.785Z,983.53
2017-07-22T04:05:02.031Z,983.51
2017-07-22T04:05:59.332Z,983.57
2017-07-22T04:06:56.581Z,983.61
2017-07-22T04:07:53.860Z,983.57
2017-07-22T04:08:51.136Z,983.67
2017-07-22T04:09:48.396Z,983.65
2017-07-22T04:10:45.653Z,983.58
2017-07-22T04:11:42.907Z,983.60
2017-07-22T04:12:40.152Z,983.57
2017-07-22T04:13:37.470Z,983.55
2017-07-22T04:14:34.725Z,983.52
2017-07-22T04:15:32.003Z,983.54
2017-07-22T04:16:29.321Z,983.59
2017-07-22T04:17:26.596Z,983.60
2017-07-22T04:18:23.815Z,983.53
2017-07-22T04:19:21.095Z,983.57
2017-07-22T04:20:18.369Z,983.55
2017-07-22T04:21:15.677Z,983.50
2017-07-22T04:22:12.909Z,983.52
2017-07-22T04:23:10.169Z,983.60
2017-07-22T04:24:07.424Z,983.58
2017-07-22T04:25:04.696Z,983.63
2017-07-22T04:26:02.000Z,983.70
2017-07-22T04:26:59.342Z,983.73
2017-07-22T04:27:56.612Z,983.77
2017-07-22T04:28:53.871Z,983.72
2017-07-22T04:29:51.742Z,983.73
2017-07-22T04:30:49.009Z,983.74
2017-07-22T04:31:46.358Z,983.77
2017-07-22T04:32:43.669Z,983.80
2017-07-22T04:33:40.901Z,983.78
2017-07-22T04:34:38.165Z,983.79
2017-07-22T04:35:35.404Z,983.81
2017-07-22T04:36:32.744Z,983.81
2017-07-22T04:37:30.008Z,983.82
2017-07-22T04:38:27.333Z,983.76
2017-07-22T04:39:24.604Z,983.75
2017-07-22T04:40:21.864Z,983.72
2017-07-22T04:41:19.104Z,983.75
2017-07-22T04:42:16.413Z,983.77
2017-07-22T04:43:13.660Z,983.74
2017-07-22T04:44:10.929Z,983.79
2017-07-22T04:45:08.206Z,983.78
2017-07-22T04:46:05.465Z,983.80
2017-07-22T04:47:02.723Z,983.85
2017-07-22T04:47:59.995Z,983.83
2017-07-22T04:48:57.500Z,983.91
2017-07-22T04:49:54.985Z,983.78
2017-07-22T04:50:52.581Z,983.75
2017-07-22T04:51:50.250Z,983.86
2017-07-22T04:52:47.845Z,983.80
2017-07-22T04:53:45.472Z,983.80
2017-07-22T04:54:42.898Z,983.77
2017-07-22T04:55:40.384Z,983.80
2017-07-22T04:56:37.958Z,983.91
2017-07-22T04:57:35.522Z,983.81
2017-07-22T04:58:32.865Z,983.90
2017-07-22T04:59:30.164Z,983.97
2017-07-22T05:00:27.408Z,983.93
2017-07-22T05:01:24.664Z,983.95
2017-07-22T05:02:21.916Z,984.00
2017-07-22T05:03:19.172Z,983.96
2017-07-22T05:04:16.435Z,983.90
2017-07-22T05:05:13.729Z,983.96
2017-07-22T05:06:11.036Z,983.99
2017-07-22T05:07:08.313Z,983.98
2017-07-22T05:08:05.584Z,984.05
2017-07-22T05:09:02.890Z,983.99
2017-07-22T05:10:00.199Z,983.94
2017-07-22T05:10:57.483Z,983.98
2017-07-22T05:11:54.773Z,983.99
2017-07-22T05:12:52.088Z,983.98
2017-07-22T05:13:49.358Z,983.98
2017-07-22T05:14:46.632Z,984.05
2017-07-22T05:15:43.885Z,983.99
2017-07-22T05:16:41.148Z,983.96
2017-07-22T05:17:38.376Z,983.99
2017-07-22T05:18:35.694Z,983.94
2017-07-22T05:19:32.935Z,984.02
2017-07-22T05:20:30.212Z,983.95
2017-07-22T05:21:27.462Z,983.98
2017-07-22T05:22:24.725Z,984.01
2017-07-22T05:23:22.480Z,984.04
2017-07-22T05:24:19.777Z,984.03
2017-07-22T05:25:17.021Z,984.03
2017-07-22T05:26:14.292Z,984.05
2017-07-22T05:27:11.535Z,984.06
2017-07-22T05:28:08.833Z,984.03
2017-07-22T05:29:06.097Z,984.05
2017-07-22T05:30:03.388Z,984.06
2017-07-22T05:31:00.700Z,984.06
2017-07-22T05:31:58.018Z,984.09
2017-07-22T05:32:55.248Z,984.15
2017-07-22T05:33:52.632Z,984.11
2017-07-22T05:34:49.859Z,984.05
2017-07-22T05:35:47.117Z,984.13
2017-07-22T05:36:44.341Z,984.10
2017-07-22T05:37:41.618Z,984.08
2017-07-22T05:38:38.880Z,984.08
2017-07-22T05:39:36.136Z,984.07
2017-07-22T05:40:33.381Z,984.11
2017-07-22T05:41:30.712Z,984.10
2017-07-22T05:42:27.982Z,984.08
2017-07-22T05:43:25.372Z,984.13
2017-07-22T05:44:22.662Z,984.15
2017-07-22T05:45:19.918Z,984.14
2017-07-22T05:46:17.185Z,984.11
2017-07-22T05:47:14.468Z,984.20
2017-07-22T05:48:11.692Z,984.16
2017-07-22T05:49:09.002Z,984.14
2017-07-22T05:50:06.288Z,984.18
2017-07-22T05:51:03.581Z,984.20
2017-07-22T05:52:00.828Z,984.16
2017-07-22T05:52:58.176Z,984.18
2017-07-22T05:53:55.445Z,984.22
2017-07-22T05:54:52.717Z,984.17
2017-07-22T05:55:49.947Z,984.14
2017-07-22T05:56:47.272Z,984.18
2017-07-22T05:57:44.508Z,984.26
2017-07-22T05:58:41.793Z,984.22
2017-07-22T05:59:39.437Z,984.24
2017-07-22T06:00:36.754Z,984.24
2017-07-22T06:01:33.975Z,984.30
2017-07-22T06:02:31.291Z,984.32
2017-07-22T06:03:28.572Z,984.31
2017-07-22T06:04:25.845Z,984.26
2017-07-22T06:05:23.105Z,984.28
2017-07-22T06:06:20.376Z,984.25
2017-07-22T06:07:17.645Z,984.31
2017-07-22T06:08:14.905Z,984.28
2017-07-22T06:09:12.160Z,984.34
2017-07-22T06:10:09.448Z,984.24
2017-07-22T06:11:06.713Z,984.17
2017-07-22T06:12:03.969Z,984.22
2017-07-22T06:13:01.204Z,984.27
2017-07-22T06:13:58.472Z,984.25
2017-07-22T06:14:55.742Z,984.33
2017-07-22T06:15:53.029Z,984.24
2017-07-22T06:16:50.284Z,984.37
2017-07-22T06:17:47.568Z,984.30
2017-07-22T06:18:44.813Z,984.33
2017-07-22T06:19:42.076Z,984.29
2017-07-22T06:20:39.333Z,984.36
2017-07-22T06:21:36.606Z,984.34
2017-07-22T06:22:33.824Z,984.29
2017-07-22T06:23:31.103Z,984.29
2017-07-22T06:24:28.360Z,984.37
2017-07-22T06:25:25.834Z,984.35
2017-07-22T06:26:23.066Z,984.29
2017-07-22T06:27:20.332Z,984.30
2017-07-22T06:28:17.561Z,984.31
2017-07-22T06:29:14.821Z,984.36
2017-07-22T06:30:12.071Z,984.42
2017-07-22T06:31:09.342Z,984.37
2017-07-22T06:32:06.590Z,984.33
2017-07-22T06:33:03.853Z,984.36
2017-07-22T06:34:01.096Z,984.40
2017-07-22T06:34:58.363Z,984.47
2017-07-22T06:35:55.631Z,984.41
2017-07-22T06:36:52.906Z,984.40
2017-07-22T06:37:50.139Z,984.44
2017-07-22T06:38:47.409Z,984.42
2017-07-22T06:39:44.653Z,984.49
2017-07-22T06:40:41.944Z,984.49
2017-07-22T06:41:39.185Z,984.48
2017-07-22T06:42:36.440Z,984.45
2017-07-22T06:43:33.681Z,984.44
2017-07-22T06:44:30.978Z,984.49
2017-07-22T06:45:28.232Z,984.48
2017-07-22T06:46:25.523Z,984.41
2017-07-22T06:47:22.762Z,984.42
2017-07-22T06:48:20.034Z,984.50
2017-07-22T06:49:17.268Z,984.49
2017-07-22T06:50:14.641Z,984.45
2017-07-22T06:51:11.914Z,984.47
2017-07-22T06:52:09.208Z,984.49
2017-07-22T06:53:06.452Z,984.45
2017-07-22T06:54:03.733Z,984.50
2017-07-22T06:55:01.031Z,984.46
2017-07-22T06:55:58.310Z,984.55
2017-07-22T06:56:55.555Z,984.49
2017-07-22T06:57:52.824Z,984.48
2017-07-22T06:58:50.080Z,984.52
2017-07-22T06:59:47.421Z,984.41
2017-07-22T07:00:44.652Z,984.42
2017-07-22T07:01:41.934Z,984.40
2017-07-22T07:02:39.164Z,984.39
2017-07-22T07:03:36.416Z,984.41
2017-07-22T07:04:33.649Z,984.36
2017-07-22T07:05:30.917Z,984.37
2017-07-22T07:06:28.209Z,984.41
2017-07-22T07:07:25.472Z,984.49
2017-07-22T07:08:22.754Z,984.58
2017-07-22T07:09:20.009Z,984.60
2017-07-22T07:10:17.251Z,984.63
2017-07-22T07:11:14.524Z,984.69
2017-07-22T07:12:11.796Z,984.66
2017-07-22T07:13:09.075Z,984.66
2017-07-22T07:14:06.304Z,984.69
2017-07-22T07:15:03.568Z,984.73
2017-07-22T07:16:00.810Z,984.71
2017-07-22T07:16:58.122Z,984.70
2017-07-22T07:17:55.376Z,984.73
2017-07-22T07:18:52.628Z,984.73
2017-07-22T07:19:49.869Z,984.71
2017-07-22T07:20:47.140Z,984.78
2017-07-22T07:21:44.365Z,984.79
2017-07-22T07:22:41.656Z,984.73
2017-07-22T07:23:38.900Z,984.79
2017-07-22T07:24:36.168Z,984.67
2017-07-22T07:25:33.392Z,984.67
2017-07-22T07:26:30.661Z,984.68
2017-07-22T07:27:27.911Z,984.67
2017-07-22T07:28:25.164Z,984.67
2017-07-22T07:29:22.392Z,984.57
2017-07-22T07:30:19.660Z,984.65
2017-07-22T07:31:16.925Z,984.61
2017-07-22T07:32:14.232Z,984.60
2017-07-22T07:33:11.485Z,984.63
2017-07-22T07:34:08.750Z,984.67
2017-07-22T07:35:05.985Z,984.60
2017-07-22T07:36:03.249Z,984.59
2017-07-22T07:37:00.489Z,984.61
2017-07-22T07:37:57.789Z,984.67
2017-07-22T07:38:55.083Z,984.61
2017-07-22T07:39:52.828Z,984.61
2017-07-22T07:40:50.062Z,984.57
2017-07-22T07:41:47.335Z,984.60
2017-07-22T07:42:44.621Z,984.56
2017-07-22T07:43:41.993Z,984.64
2017-07-22T07:44:39.234Z,984.62
2017-07-22T07:45:41.624Z,984.58
2017-07-22T07:46:39.001Z,984.59
2017-07-22T07:47:36.269Z,984.55
2017-07-22T07:48:33.573Z,984.57
2017-07-22T07:49:30.796Z,984.59
2017-07-22T07:50:28.273Z,984.57
2017-07-22T07:51:25.505Z,984.54
2017-07-22T07:52:22.792Z,984.61
2017-07-22T07:53:20.056Z,984.62
2017-07-22T07:54:17.348Z,984.64
2017-07-22T07:55:14.609Z,984.69
2017-07-22T07:56:11.904Z,984.64
2017-07-22T07:57:09.148Z,984.66
2017-07-22T07:58:06.435Z,984.66
2017-07-22T07:59:03.677Z,984.66
2017-07-22T08:00:00.983Z,984.71
2017-07-22T08:00:58.250Z,984.72
2017-07-22T08:01:55.536Z,984.68
2017-07-22T08:02:52.814Z,984.62
2017-07-22T08:03:50.121Z,984.63
2017-07-22T08:04:47.364Z,984.65
2017-07-22T08:05:44.627Z,984.61
2017-07-22T08:06:41.876Z,984.64
2017-07-22T08:07:39.159Z,984.72
2017-07-22T08:08:36.424Z,984.67
2017-07-22T08:09:33.749Z,984.66
2017-07-22T08:10:30.999Z,984.64
2017-07-22T08:11:28.314Z,984.67
2017-07-22T08:12:25.574Z,984.62
2017-07-22T08:13:22.876Z,984.63
2017-07-22T08:14:20.127Z,984.61
2017-07-22T08:15:17.425Z,984.64
2017-07-22T08:16:14.652Z,984.59
2017-07-22T08:17:11.908Z,984.68
2017-07-22T08:18:09.161Z,984.66
2017-07-22T08:19:06.429Z,984.64
2017-07-22T08:20:03.664Z,984.68
2017-07-22T08:21:00.938Z,984.66
2017-07-22T08:21:58.194Z,984.64
2017-07-22T08:22:55.484Z,984.63
2017-07-22T08:23:52.733Z,984.68
2017-07-22T08:24:49.991Z,984.69
2017-07-22T08:25:47.216Z,984.63
2017-07-22T08:26:44.483Z,984.67
2017-07-22T08:27:41.738Z,984.64
2017-07-22T08:28:39.065Z,984.56
2017-07-22T08:29:36.328Z,984.60
2017-07-22T08:30:33.590Z,984.56
2017-07-22T08:31:30.840Z,984.57
2017-07-22T08:32:28.149Z,984.49
2017-07-22T08:33:25.404Z,984.51
2017-07-22T08:34:22.692Z,984.53
2017-07-22T08:35:19.948Z,984.55
2017-07-22T08:36:17.210Z,984.59
2017-07-22T08:37:14.444Z,984.54
2017-07-22T08:38:11.736Z,984.50
2017-07-22T08:39:09.004Z,984.55
2017-07-22T08:40:06.287Z,984.59
2017-07-22T08:41:03.521Z,984.52
2017-07-22T08:42:00.799Z,984.62
2017-07-22T08:42:58.068Z,984.58
2017-07-22T08:43:55.343Z,984.67
2017-07-22T08:44:52.712Z,984.60
2017-07-22T08:45:49.994Z,984.63
2017-07-22T08:46:47.240Z,984.64
2017-07-22T08:47:44.501Z,984.58
2017-07-22T08:48:41.746Z,984.59
2017-07-22T08:49:39.029Z,984.62
2017-07-22T08:50:36.265Z,984.64
2017-07-22T08:51:33.517Z,984.59
2017-07-22T08:52:30.780Z,984.64
2017-07-22T08:53:28.065Z,984.60
2017-07-22T08:54:25.336Z,984.63
2017-07-22T08:55:22.621Z,984.59
2017-07-22T08:56:19.893Z,984.64
2017-07-22T08:57:17.186Z,984.69
2017-07-22T08:58:14.458Z,984.69
2017-07-22T08:59:11.745Z,984.68
2017-07-22T09:00:09.000Z,984.64
2017-07-22T09:01:06.251Z,984.63
2017-07-22T09:02:03.504Z,984.64
2017-07-22T09:03:00.785Z,984.64
2017-07-22T09:03:58.020Z,984.67
2017-07-22T09:04:55.313Z,984.69
2017-07-22T09:05:52.580Z,984.62
2017-07-22T09:06:49.898Z,984.60
2017-07-22T09:07:47.162Z,984.61
2017-07-22T09:08:44.535Z,984.64
2017-07-22T09:09:41.792Z,984.70
2017-07-22T09:10:39.128Z,984.59
2017-07-22T09:11:36.427Z,984.64
2017-07-22T09:12:33.758Z,984.69
2017-07-22T09:13:31.047Z,984.68
2017-07-22T09:14:28.339Z,984.65
2017-07-22T09:15:25.634Z,984.66
2017-07-22T09:16:22.967Z,984.67
2017-07-22T09:17:20.291Z,984.67
2017-07-22T09:18:17.584Z,984.68
2017-07-22T09:19:14.889Z,984.65
2017-07-22T09:20:12.187Z,984.80
2017-07-22T09:21:09.505Z,984.79
2017-07-22T09:22:06.807Z,984.74
2017-07-22T09:23:04.075Z,984.80
2017-07-22T09:24:01.406Z,984.77
2017-07-22T09:24:58.670Z,984.80
2017-07-22T09:25:56.046Z,984.75
2017-07-22T09:26:53.486Z,984.77
2017-07-22T09:27:50.829Z,984.66
2017-07-22T09:28:48.106Z,984.76
2017-07-22T09:29:45.456Z,984.75
2017-07-22T09:30:42.733Z,984.76
2017-07-22T09:31:40.096Z,984.79
2017-07-22T09:32:37.373Z,984.84
2017-07-22T09:33:34.675Z,984.78
2017-07-22T09:34:31.927Z,984.72
2017-07-22T09:35:29.243Z,984.72
2017-07-22T09:36:26.792Z,984.73
2017-07-22T09:37:24.149Z,984.63
2017-07-22T09:38:21.453Z,984.66
2017-07-22T09:39:18.821Z,984.69
2017-07-22T09:40:16.081Z,984.68
2017-07-22T09:41:13.480Z,984.75
2017-07-22T09:42:10.775Z,984.75
2017-07-22T09:43:08.068Z,984.73
2017-07-22T09:44:05.394Z,984.70
2017-07-22T09:45:02.685Z,984.72
2017-07-22T09:45:59.998Z,984.70
2017-07-22T09:46:57.289Z,984.67
2017-07-22T09:47:54.587Z,984.63
2017-07-22T09:48:51.845Z,984.71
2017-07-22T09:49:49.143Z,984.75
2017-07-22T09:50:46.416Z,984.69
2017-07-22T09:51:43.756Z,984.69
2017-07-22T09:52:41.698Z,984.69
2017-07-22T09:53:40.237Z,984.74
2017-07-22T09:54:38.485Z,984.70
2017-07-22T09:55:36.978Z,984.76
2017-07-22T09:56:35.966Z,984.84
2017-07-22T09:57:34.268Z,984.75
2017-07-22T09:58:32.273Z,984.77
2017-07-22T09:59:30.714Z,984.80
2017-07-22T10:00:28.740Z,984.76
2017-07-22T10:01:27.084Z,984.79
2017-07-22T10:02:25.503Z,984.81
2017-07-22T10:03:23.985Z,984.87
2017-07-22T10:04:22.103Z,984.86
2017-07-22T10:05:20.709Z,984.84
2017-07-22T10:06:19.314Z,984.84
2017-07-22T10:07:17.910Z,984.85
2017-07-22T10:08:16.156Z,984.92
2017-07-22T10:09:18.070Z,984.85
2017-07-22T10:10:18.282Z,984.87
2017-07-22T10:11:21.919Z,984.86
2017-07-22T10:12:27.274Z,984.90
2017-07-22T10:13:27.975Z,984.84
2017-07-22T10:14:31.914Z,984.98
2017-07-22T10:15:34.247Z,984.86
2017-07-22T10:16:34.227Z,984.94
2017-07-22T10:17:33.467Z,984.86
2017-07-22T10:18:33.056Z,984.96
2017-07-22T10:19:30.969Z,984.88
2017-07-22T10:20:28.348Z,984.90
2017-07-22T10:21:25.628Z,984.83
2017-07-22T10:22:22.885Z,984.87
2017-07-22T10:23:20.206Z,984.89
2017-07-22T10:24:17.699Z,984.92
2017-07-22T10:25:15.124Z,984.91
2017-07-22T10:26:12.449Z,984.90
2017-07-22T10:27:09.723Z,984.88
2017-07-22T10:28:07.053Z,984.89
2017-07-22T10:29:04.310Z,984.88
2017-07-22T10:30:01.580Z,984.90
2017-07-22T10:30:58.849Z,984.95
2017-07-22T10:31:56.157Z,984.94
2017-07-22T10:32:53.461Z,984.90
2017-07-22T10:33:50.765Z,984.91
2017-07-22T10:34:48.106Z,984.92
2017-07-22T10:35:45.921Z,984.92
2017-07-22T10:36:43.824Z,984.89
2017-07-22T10:37:42.137Z,984.84
2017-07-22T10:38:40.755Z,984.85
2017-07-22T10:39:39.392Z,984.75
2017-07-22T10:40:37.881Z,984.85
2017-07-22T10:41:36.396Z,984.86
2017-07-22T10:42:34.968Z,984.78
2017-07-22T10:43:33.511Z,984.80
2017-07-22T10:44:31.521Z,984.87
2017-07-22T10:45:29.262Z,984.82
2017-07-22T10:46:26.527Z,984.91
2017-07-22T10:47:23.805Z,984.85
2017-07-22T10:48:21.045Z,984.86
2017-07-22T10:49:18.353Z,984.84
2017-07-22T10:50:15.660Z,984.93
2017-07-22T10:51:13.014Z,984.84
2017-07-22T10:52:10.283Z,984.81
2017-07-22T10:53:07.604Z,984.87
2017-07-22T10:54:04.885Z,984.77
2017-07-22T10:55:02.180Z,984.83
2017-07-22T10:55:59.426Z,984.84
2017-07-22T10:56:56.712Z,984.77
2017-07-22T10:57:53.959Z,984.76
2017-07-22T10:58:51.301Z,984.75
2017-07-22T10:59:48.612Z,984.79
2017-07-22T11:00:45.884Z,984.72
2017-07-22T11:01:43.129Z,984.73
2017-07-22T11:02:40.401Z,984.74
2017-07-22T11:03:37.633Z,984.70
2017-07-22T11:04:34.924Z,984.74
2017-07-22T11:05:32.154Z,984.72
2017-07-22T11:06:29.803Z,984.71
2017-07-22T11:07:27.073Z,984.67
2017-07-22T11:08:24.366Z,984.71
2017-07-22T11:09:21.627Z,984.68
2017-07-22T11:10:18.965Z,984.72
2017-07-22T11:11:16.237Z,984.63
2017-07-22T11:12:13.657Z,984.65
2017-07-22T11:13:10.877Z,984.60
2017-07-22T11:14:08.151Z,984.63
2017-07-22T11:15:05.401Z,984.61
2017-07-22T11:16:02.752Z,984.55
2017-07-22T11:16:59.996Z,984.57
2017-07-22T11:17:57.372Z,984.48
2017-07-22T11:18:54.601Z,984.56
2017-07-22T11:19:51.925Z,984.55
2017-07-22T11:20:49.145Z,984.57
2017-07-22T11:21:46.504Z,984.60
2017-07-22T11:22:43.765Z,984.61
2017-07-22T11:23:41.052Z,984.63
2017-07-22T11:24:38.304Z,984.54
2017-07-22T11:25:35.585Z,984.58
2017-07-22T11:26:32.826Z,984.53
2017-07-22T11:27:30.097Z,984.52
2017-07-22T11:28:27.372Z,984.54
2017-07-22T11:29:24.633Z,984.48
2017-07-22T11:30:21.884Z,984.53
2017-07-22T11:31:19.157Z,984.51
2017-07-22T11:32:16.408Z,984.54
2017-07-22T11:33:13.697Z,984.56
2017-07-22T11:34:11.018Z,984.50
2017-07-22T11:35:08.409Z,984.52
2017-07-22T11:36:05.675Z,984.53
2017-07-22T11:37:02.953Z,984.51
2017-07-22T11:38:00.198Z,984.61
2017-07-22T11:38:57.465Z,984.54
2017-07-22T11:39:54.808Z,984.60
2017-07-22T11:40:52.068Z,984.65
2017-07-22T11:41:49.312Z,984.57
2017-07-22T11:42:46.649Z,984.63
2017-07-22T11:43:43.884Z,984.66
2017-07-22T11:44:41.157Z,984.63
2017-07-22T11:45:38.415Z,984.67
2017-07-22T11:46:35.684Z,984.81
2017-07-22T11:47:32.953Z,984.64
2017-07-22T11:48:30.264Z,984.75
2017-07-22T11:49:27.500Z,984.74
2017-07-22T11:50:24.773Z,984.74
2017-07-22T11:51:22.001Z,984.75
2017-07-22T11:52:19.269Z,984.72
2017-07-22T11:53:16.504Z,984.75
2017-07-22T11:54:13.773Z,984.71
2017-07-22T11:55:11.246Z,984.70
2017-07-22T11:56:08.741Z,984.66